This is the latest recevied weather packets stored in our database for station/object KE9DBJ-13. If no packets are shown the sender has not sent any weather packets the latest 10 day(s).
| Time | Temp. | Humidity | Pressure | Rain* | Wind** | Luminosity | Snow |
|---|---|---|---|---|---|---|---|
| 1777864202 | 11.11° C | 62% | 1013 hPa | 0 mm | - | - | - |
| 1777863602 | 11.11° C | 63% | 1013.1 hPa | 0 mm | - | - | - |
| 1777863002 | 11.11° C | 62% | 1012.9 hPa | 0 mm | - | - | - |
| 1777862402 | 11.67° C | 60% | 1012.9 hPa | 0 mm | - | - | - |
| 1777861802 | 11.67° C | 63% | 1012.9 hPa | 0 mm | - | - | - |
| 1777861202 | 11.67° C | 61% | 1012.8 hPa | 0 mm | - | - | - |
| 1777860603 | 12.22° C | 60% | 1012.8 hPa | 0 mm | - | - | - |
| 1777860003 | 12.22° C | 62% | 1012.5 hPa | 0 mm | - | - | - |
| 1777859403 | 12.22° C | 60% | 1012.7 hPa | 0 mm | - | - | - |
| 1777858803 | 12.22° C | 64% | 1012.7 hPa | 0 mm | - | - | - |
| 1777858203 | 11.67° C | 65% | 1012.4 hPa | 0 mm | - | - | - |
| 1777857603 | 11.67° C | 69% | 1012.2 hPa | 0 mm | - | - | - |
| 1777857002 | 11.67° C | 69% | 1011.9 hPa | 0 mm | - | - | - |
| 1777856402 | 11.11° C | 81% | 1012.9 hPa | 0 mm | - | - | - |
| 1777855802 | 11.11° C | 82% | 1013.1 hPa | 0 mm | - | - | - |
| 1777855202 | 11.67° C | 77% | 1013.1 hPa | 0 mm | - | - | - |
| 1777854602 | 11.67° C | 78% | 1013.1 hPa | 0 mm | - | - | - |
| 1777854002 | 11.67° C | 69% | 1013 hPa | 0 mm | - | - | - |
| 1777853402 | 12.22° C | 74% | 1013.1 hPa | 0 mm | - | - | - |
| 1777852802 | 12.78° C | 69% | 1012.8 hPa | 0 mm | - | - | - |
| 1777852202 | 13.33° C | 61% | 1012.5 hPa | 0 mm | - | - | - |
| 1777851602 | 13.89° C | 57% | 1012.6 hPa | 0 mm | - | - | - |
| 1777851002 | 13.89° C | 58% | 1012.4 hPa | 0 mm | - | - | - |
| 1777850403 | 15° C | 50% | 1012.7 hPa | 0 mm | - | - | - |
| 1777849803 | 16.11° C | 44% | 1012.9 hPa | 0 mm | - | - | - |
* Rain latest hour (hover to see other rain measurements)
** Current wind speed in m/s (hover to see current wind gust speed)